Time;durP1;ratioP1;P1;durP2;ratioP2;P2;SDS_P1;SDS_P2;PMS_P1;PMS_P2;Temp;Humidity;BMP_temperature;BMP_pressure;BME280_temperature;BME280_humidity;BME280_pressure;Samples;Min_cycle;Max_cycle;Signal;HPM_P1;HPM_P2
2022/10/02 00:01:52;;;;;;;7.25;2.50;;;11.30;99.90;;;;;;5074803;28;20048;-68
2022/10/02 00:04:26;;;;;;;6.55;2.72;;;11.30;99.90;;;;;;5032193;28;20053;-67
2022/10/02 00:06:56;;;;;;;8.88;2.90;;;11.30;99.90;;;;;;5069411;28;20458;-68
2022/10/02 00:09:31;;;;;;;6.30;2.60;;;11.30;99.90;;;;;;5074816;28;20044;-69
2022/10/02 00:11:59;;;;;;;8.40;3.03;;;11.30;99.90;;;;;;5074868;28;20041;-68
2022/10/02 00:14:29;;;;;;;8.05;2.92;;;11.40;99.90;;;;;;5074626;28;20144;-68
2022/10/02 00:16:58;;;;;;;5.85;2.53;;;11.40;99.90;;;;;;5074701;28;20123;-68
2022/10/02 00:19:25;;;;;;;6.15;2.80;;;11.40;99.90;;;;;;5074130;28;20041;-68
2022/10/02 00:21:56;;;;;;;7.13;2.83;;;11.30;99.90;;;;;;5074040;28;20127;-68
2022/10/02 00:25:05;;;;;;;8.82;2.67;;;11.40;99.90;;;;;;5074320;28;20420;-67
2022/10/02 00:28:02;;;;;;;8.40;2.88;;;11.50;99.90;;;;;;5073229;28;20060;-68
2022/10/02 00:30:40;;;;;;;7.47;1.90;;;11.50;99.90;;;;;;5073561;28;20398;-67
2022/10/02 00:33:26;;;;;;;6.10;2.30;;;11.40;99.90;;;;;;5073938;28;20127;-68
2022/10/02 00:36:03;;;;;;;6.97;1.90;;;11.50;99.90;;;;;;5074507;28;20071;-68
2022/10/02 00:39:06;;;;;;;6.40;2.17;;;11.50;99.90;;;;;;5074347;28;20435;-68
2022/10/02 00:41:59;;;;;;;6.53;2.45;;;11.60;99.90;;;;;;5073572;28;20044;-68
2022/10/02 00:45:12;;;;;;;5.78;2.03;;;11.50;99.90;;;;;;5073364;28;20393;-68
2022/10/02 00:48:11;;;;;;;4.88;1.73;;;11.50;99.90;;;;;;5041723;28;20053;-68
2022/10/02 00:50:40;;;;;;;6.63;2.35;;;11.40;99.90;;;;;;5073650;28;20048;-68
2022/10/02 00:53:24;;;;;;;6.65;2.00;;;11.30;99.90;;;;;;5073563;28;20046;-67
2022/10/02 00:56:33;;;;;;;6.95;2.03;;;11.40;99.90;;;;;;5073293;28;20059;-67
2022/10/02 00:59:32;;;;;;;4.18;1.88;;;11.30;99.90;;;;;;5072607;28;20052;-68
2022/10/02 01:02:02;;;;;;;9.00;2.35;;;11.30;99.90;;;;;;5072598;28;20052;-68
2022/10/02 01:04:32;;;;;;;8.13;2.30;;;11.30;99.90;;;;;;5074107;28;20055;-68
2022/10/02 01:06:58;;;;;;;7.25;2.38;;;11.20;99.90;;;;;;5073452;28;20504;-65
2022/10/02 01:09:25;;;;;;;5.30;2.60;;;11.30;99.90;;;;;;5073289;28;20484;-65
2022/10/02 01:11:51;;;;;;;7.95;2.30;;;11.20;99.90;;;;;;5073349;28;20064;-67
2022/10/02 01:14:17;;;;;;;6.43;2.60;;;11.20;99.90;;;;;;5073636;28;20090;-66
2022/10/02 01:16:44;;;;;;;6.13;2.30;;;11.20;99.90;;;;;;5073274;28;20131;-67
2022/10/02 01:19:34;;;;;;;6.47;2.60;;;11.20;99.90;;;;;;5073239;28;20052;-68
2022/10/02 01:22:32;;;;;;;7.65;2.65;;;11.20;99.90;;;;;;5073239;28;20052;-67
2022/10/02 01:25:00;;;;;;;6.05;2.85;;;11.20;99.90;;;;;;5036900;28;20060;-67
2022/10/02 01:27:26;;;;;;;6.53;2.47;;;11.20;99.90;;;;;;5073770;28;20169;-67
2022/10/02 01:30:04;;;;;;;6.60;2.40;;;11.20;99.90;;;;;;5073214;28;20080;-67
2022/10/02 01:32:32;;;;;;;6.45;2.60;;;11.20;99.90;;;;;;5073698;28;20044;-67
2022/10/02 01:34:59;;;;;;;4.78;2.55;;;11.20;99.90;;;;;;5073181;28;20048;-67
2022/10/02 01:37:31;;;;;;;8.13;2.47;;;11.30;99.90;;;;;;5073101;28;20048;-68
2022/10/02 01:40:04;;;;;;;9.27;2.53;;;11.30;99.90;;;;;;5073097;28;20174;-67
2022/10/02 01:42:30;;;;;;;5.45;2.70;;;11.30;99.90;;;;;;5072250;28;20413;-67
2022/10/02 01:44:56;;;;;;;7.60;2.95;;;11.30;99.90;;;;;;5072854;28;20041;-67
2022/10/02 01:47:35;;;;;;;9.55;2.50;;;11.20;99.90;;;;;;5073298;28;20439;-67
2022/10/02 01:50:27;;;;;;;7.15;2.38;;;11.20;99.90;;;;;;5071888;28;20080;-68
2022/10/02 01:53:14;;;;;;;8.13;2.63;;;11.10;99.90;;;;;;5073427;28;20080;-67
2022/10/02 01:56:00;;;;;;;6.47;2.90;;;11.10;99.90;;;;;;5073828;28;20076;-67
2022/10/02 01:58:44;;;;;;;8.13;3.00;;;11.30;99.90;;;;;;5076938;28;20045;-68
2022/10/02 02:01:31;;;;;;;6.63;2.60;;;11.20;99.90;;;;;;5076665;28;20064;-66
2022/10/02 02:04:26;;;;;;;8.32;2.78;;;11.20;99.90;;;;;;5076829;28;20089;-66
2022/10/02 02:07:03;;;;;;;6.13;2.97;;;11.10;99.90;;;;;;5076411;28;20106;-66
2022/10/02 02:09:38;;;;;;;6.75;2.53;;;11.20;99.90;;;;;;5077437;28;20398;-67
2022/10/02 02:12:44;;;;;;;6.33;2.33;;;11.20;99.90;;;;;;5076688;28;20055;-67
2022/10/02 02:15:27;;;;;;;7.78;2.67;;;11.20;99.90;;;;;;5076576;28;20133;-67
2022/10/02 02:18:31;;;;;;;7.95;2.55;;;11.20;99.90;;;;;;5075857;28;20084;-67
2022/10/02 02:21:03;;;;;;;9.15;3.58;;;11.30;99.90;;;;;;5074858;28;20056;-66
2022/10/02 02:23:33;;;;;;;5.95;2.25;;;11.30;99.90;;;;;;5075998;28;20048;-67
2022/10/02 02:26:05;;;;;;;8.40;2.50;;;11.30;99.90;;;;;;5076361;28;20400;-66
2022/10/02 02:28:33;;;;;;;8.60;2.17;;;11.20;99.90;;;;;;5075272;28;20056;-67
2022/10/02 02:31:01;;;;;;;8.20;2.42;;;11.20;99.90;;;;;;5076225;28;20048;-67
2022/10/02 02:33:35;;;;;;;6.53;2.38;;;11.30;99.90;;;;;;5076189;28;20136;-67
2022/10/02 02:36:06;;;;;;;7.57;2.30;;;11.20;99.90;;;;;;5075995;28;20055;-67
2022/10/02 02:38:45;;;;;;;7.85;2.70;;;11.20;99.90;;;;;;5075848;28;20531;-68
2022/10/02 02:41:13;;;;;;;7.25;2.58;;;11.20;99.90;;;;;;5076280;28;20094;-68
2022/10/02 02:44:00;;;;;;;8.63;2.92;;;11.20;99.90;;;;;;5075935;28;20056;-67
2022/10/02 02:47:02;;;;;;;8.43;2.40;;;11.20;99.90;;;;;;5074830;28;20102;-67
2022/10/02 02:49:28;;;;;;;6.85;2.60;;;11.20;99.90;;;;;;5076021;28;20091;-67
2022/10/02 02:51:58;;;;;;;6.88;2.53;;;11.20;99.90;;;;;;5076927;28;20046;-67
2022/10/02 02:54:35;;;;;;;7.97;2.30;;;11.20;99.90;;;;;;5075092;28;20048;-68
2022/10/02 02:57:04;;;;;;;6.93;2.63;;;11.10;99.90;;;;;;5076329;28;20048;-67
2022/10/02 02:59:31;;;;;;;7.07;2.13;;;11.10;99.90;;;;;;5075703;28;20053;-67
2022/10/02 03:01:57;;;;;;;6.25;2.20;;;11.20;99.90;;;;;;5075274;28;20478;-67
2022/10/02 03:04:22;;;;;;;7.88;2.50;;;11.20;99.90;;;;;;5075445;28;20396;-67
2022/10/02 03:06:55;;;;;;;5.35;2.28;;;11.20;99.90;;;;;;5075051;28;20076;-67
2022/10/02 03:09:22;;;;;;;7.68;2.50;;;11.10;99.90;;;;;;5075297;28;20048;-67
2022/10/02 03:11:51;;;;;;;7.25;2.33;;;11.10;99.90;;;;;;5076217;28;20071;-67
2022/10/02 03:14:40;;;;;;;3.78;1.85;;;11.20;99.90;;;;;;5075468;28;20137;-67
2022/10/02 03:17:08;;;;;;;4.03;1.92;;;11.20;99.90;;;;;;5069642;28;20057;-67
2022/10/02 03:20:08;;;;;;;5.07;2.42;;;11.30;99.90;;;;;;5075327;28;20045;-67
2022/10/02 03:23:07;;;;;;;5.75;2.47;;;11.30;99.90;;;;;;5075751;28;20491;-67
2022/10/02 03:26:07;;;;;;;5.75;2.05;;;11.30;99.90;;;;;;5058391;28;20063;-67
2022/10/02 03:28:45;;;;;;;5.88;1.85;;;11.30;99.90;;;;;;5067604;28;20148;-67
2022/10/02 03:31:13;;;;;;;6.00;2.10;;;11.40;99.90;;;;;;5075163;28;20044;-66
2022/10/02 03:33:40;;;;;;;4.70;1.80;;;11.30;99.90;;;;;;5075490;28;20044;-67
2022/10/02 03:36:05;;;;;;;4.72;1.98;;;11.30;99.90;;;;;;5075348;28;20086;-67
2022/10/02 03:38:32;;;;;;;5.35;2.22;;;11.30;99.90;;;;;;5075155;28;20054;-66
2022/10/02 03:40:58;;;;;;;5.72;2.13;;;11.20;99.90;;;;;;5073745;28;20047;-67
2022/10/02 03:43:26;;;;;;;5.53;1.90;;;11.30;99.90;;;;;;5074392;28;20477;-67
2022/10/02 03:45:52;;;;;;;6.05;2.08;;;11.30;99.90;;;;;;5074173;28;20052;-67
2022/10/02 03:48:18;;;;;;;5.40;1.98;;;11.30;99.90;;;;;;5075047;28;20056;-67
2022/10/02 03:50:44;;;;;;;6.32;1.80;;;11.30;99.90;;;;;;5075244;28;20056;-69
2022/10/02 03:53:16;;;;;;;3.20;1.50;;;11.30;99.90;;;;;;5074657;28;20098;-67
2022/10/02 03:55:51;;;;;;;4.57;1.58;;;11.30;99.90;;;;;;5075408;28;20074;-67
2022/10/02 03:58:17;;;;;;;5.47;1.90;;;11.20;99.90;;;;;;5075361;28;20044;-67
2022/10/02 04:01:04;;;;;;;5.30;1.50;;;11.20;99.90;;;;;;5074579;28;20051;-66
2022/10/02 04:03:36;;;;;;;4.30;1.50;;;11.20;99.90;;;;;;5074478;28;20051;-67
2022/10/02 04:06:12;;;;;;;4.22;1.52;;;11.10;99.90;;;;;;5074509;28;20481;-67
2022/10/02 04:08:44;;;;;;;4.32;1.90;;;11.10;99.90;;;;;;5074725;28;20400;-67
2022/10/02 04:11:37;;;;;;;4.55;1.45;;;11.10;99.90;;;;;;5074377;28;20417;-67
2022/10/02 04:14:12;;;;;;;3.95;1.58;;;11.10;99.90;;;;;;5075039;28;20056;-67
2022/10/02 04:17:07;;;;;;;4.97;1.58;;;11.00;99.90;;;;;;5074329;28;20048;-68
2022/10/02 04:19:45;;;;;;;6.97;2.00;;;11.00;99.90;;;;;;5072981;28;20060;-67
2022/10/02 04:22:48;;;;;;;4.40;1.70;;;10.90;99.90;;;;;;5072798;28;20083;-67
2022/10/02 04:25:22;;;;;;;4.32;1.73;;;11.00;99.90;;;;;;5071574;28;20056;-67
2022/10/02 04:28:06;;;;;;;4.05;1.40;;;11.00;99.90;;;;;;5074119;28;20040;-67
2022/10/02 04:30:32;;;;;;;3.85;1.83;;;11.00;99.90;;;;;;5074496;28;20044;-67
2022/10/02 04:33:12;;;;;;;4.97;1.60;;;11.00;99.90;;;;;;5073877;28;20036;-68
2022/10/02 04:35:59;;;;;;;5.30;1.65;;;11.00;99.90;;;;;;5074471;28;20051;-67
2022/10/02 04:38:27;;;;;;;;;;;11.00;99.90;;;;;;5074814;28;20045;-67
2022/10/02 04:41:21;;;;;;;7.75;1.83;;;10.90;99.90;;;;;;5073673;28;19920;-67
2022/10/02 04:44:22;;;;;;;3.03;1.48;;;10.90;99.90;;;;;;5073431;28;20477;-67
2022/10/02 04:47:25;;;;;;;4.57;1.73;;;10.90;99.90;;;;;;5057536;28;20382;-67
2022/10/02 04:50:15;;;;;;;6.03;1.67;;;10.90;99.90;;;;;;5073647;28;20044;-68
2022/10/02 04:53:20;;;;;;;4.68;1.58;;;10.90;99.90;;;;;;5073353;28;20591;-67
2022/10/02 04:56:04;;;;;;;6.07;1.63;;;10.90;99.90;;;;;;5064168;28;20413;-67
2022/10/02 04:58:47;;;;;;;4.95;2.80;;;10.90;99.90;;;;;;5073451;28;20393;-67
2022/10/02 05:01:39;;;;;;;3.95;1.75;;;10.80;99.90;;;;;;5073342;28;20131;-67
2022/10/02 05:04:23;;;;;;;5.07;2.05;;;10.80;99.90;;;;;;5073992;28;20044;-67
2022/10/02 05:07:05;;;;;;;5.90;1.80;;;10.80;99.90;;;;;;5073091;28;20588;-67
2022/10/02 05:09:39;;;;;;;7.13;1.83;;;10.80;99.90;;;;;;5073964;28;20051;-68
2022/10/02 05:12:29;;;;;;;4.70;1.75;;;10.80;99.90;;;;;;5074190;28;20409;-67
2022/10/02 05:15:27;;;;;;;3.38;1.65;;;10.70;99.90;;;;;;5072278;28;20063;-67
2022/10/02 05:18:09;;;;;;;7.53;1.88;;;10.70;99.90;;;;;;5073347;28;20478;-68
2022/10/02 05:20:54;;;;;;;4.63;1.80;;;10.70;99.90;;;;;;5073292;28;20092;-67
2022/10/02 05:23:38;;;;;;;4.95;1.73;;;10.70;99.90;;;;;;5073499;28;20485;-67
2022/10/02 05:26:28;;;;;;;5.35;1.77;;;10.70;99.90;;;;;;5073266;28;20086;-67
2022/10/02 05:28:54;;;;;;;4.72;1.90;;;10.80;99.90;;;;;;5073300;28;20051;-68
2022/10/02 05:31:52;;;;;;;4.57;2.03;;;10.80;99.90;;;;;;5076959;28;20048;-67
2022/10/02 05:34:44;;;;;;;4.50;1.65;;;10.70;99.90;;;;;;5079380;28;20489;-67
2022/10/02 05:37:25;;;;;;;7.57;2.17;;;10.80;99.90;;;;;;5079617;28;20044;-68
2022/10/02 05:40:00;;;;;;;5.03;1.80;;;10.70;99.90;;;;;;5079590;28;20044;-68
2022/10/02 05:42:36;;;;;;;5.93;2.42;;;10.70;99.90;;;;;;5080160;28;20431;-67
2022/10/02 05:45:20;;;;;;;4.47;1.80;;;10.70;99.90;;;;;;5062415;28;20052;-67
2022/10/02 05:47:48;;;;;;;7.80;1.90;;;10.60;99.90;;;;;;5080207;28;20111;-67
2022/10/02 05:50:18;;;;;;;6.22;2.33;;;10.60;99.90;;;;;;5079693;28;20053;-67
2022/10/02 05:53:01;;;;;;;4.78;1.95;;;10.60;99.90;;;;;;5079603;28;20041;-67
2022/10/02 05:55:27;;;;;;;6.38;2.50;;;10.60;99.90;;;;;;5080241;28;20397;-67
2022/10/02 05:58:49;;;;;;;5.60;2.03;;;10.60;99.90;;;;;;5079605;28;20044;-68
2022/10/02 06:01:26;;;;;;;5.78;2.42;;;10.60;99.90;;;;;;5037291;28;20049;-66
2022/10/02 06:04:04;;;;;;;4.40;2.13;;;10.70;99.90;;;;;;5037886;28;20364;-67
2022/10/02 06:06:38;;;;;;;6.75;2.55;;;10.70;99.90;;;;;;5069156;28;20060;-67
2022/10/02 06:09:13;;;;;;;5.55;1.83;;;10.70;99.90;;;;;;5079493;28;20127;-67
2022/10/02 06:11:59;;;;;;;4.75;1.70;;;10.70;99.90;;;;;;5080250;28;20059;-67
2022/10/02 06:14:34;;;;;;;5.07;1.80;;;10.80;99.90;;;;;;5079717;28;20061;-67
2022/10/02 06:17:10;;;;;;;7.40;2.17;;;10.80;99.90;;;;;;5079723;28;20044;-68
2022/10/02 06:19:51;;;;;;;6.82;1.90;;;10.80;99.90;;;;;;5079393;28;20048;-67
2022/10/02 06:22:25;;;;;;;7.60;2.30;;;10.80;99.90;;;;;;5080107;28;20377;-67
2022/10/02 06:25:03;;;;;;;4.95;2.28;;;10.90;99.90;;;;;;5079684;28;20052;-68
2022/10/02 06:27:49;;;;;;;6.90;2.35;;;10.90;99.90;;;;;;5079693;28;20063;-68
2022/10/02 06:30:17;;;;;;;6.68;2.40;;;10.90;99.90;;;;;;5079920;28;20048;-67
2022/10/02 06:33:05;;;;;;;8.50;2.08;;;11.00;99.90;;;;;;5078934;28;20051;-68
2022/10/02 06:35:58;;;;;;;5.47;1.83;;;11.00;99.90;;;;;;5079510;28;20131;-67
2022/10/02 06:38:32;;;;;;;4.05;2.25;;;11.10;99.90;;;;;;5079567;28;20099;-68
2022/10/02 06:41:28;;;;;;;4.60;2.35;;;11.10;99.90;;;;;;5078008;28;20048;-68
2022/10/02 06:44:18;;;;;;;6.32;2.35;;;11.20;99.90;;;;;;5075543;28;20044;-68
2022/10/02 06:47:06;;;;;;;8.77;2.55;;;11.30;99.90;;;;;;5075286;28;20075;-68
2022/10/02 06:49:38;;;;;;;9.27;2.97;;;11.40;99.90;;;;;;5076771;28;20122;-68
2022/10/02 06:52:26;;;;;;;7.05;2.22;;;11.50;99.90;;;;;;5075786;28;20044;-69
2022/10/02 06:54:56;;;;;;;6.85;2.72;;;11.50;99.90;;;;;;5074864;28;20051;-68
2022/10/02 06:57:50;;;;;;;4.00;1.60;;;11.60;99.90;;;;;;5075539;28;20044;-68
2022/10/02 07:00:21;;;;;;;6.72;2.20;;;11.70;99.90;;;;;;5074690;28;20052;-69
2022/10/02 07:02:59;;;;;;;6.10;2.10;;;11.80;99.90;;;;;;5075633;28;20126;-68
2022/10/02 07:05:46;;;;;;;6.60;2.00;;;11.90;99.90;;;;;;5075939;28;20067;-68
2022/10/02 07:08:21;;;;;;;6.10;1.60;;;11.90;99.90;;;;;;5075139;28;20390;-69
2022/10/02 07:11:24;;;;;;;6.23;2.07;;;12.00;99.90;;;;;;5075572;28;20051;-68
2022/10/02 07:14:29;;;;;;;6.63;1.88;;;12.10;99.90;;;;;;5075335;28;20059;-62
2022/10/02 07:17:15;;;;;;;4.35;1.60;;;12.20;99.90;;;;;;5062859;28;20053;-62
2022/10/02 07:19:49;;;;;;;6.10;2.00;;;12.30;99.90;;;;;;5075963;28;20127;-62
2022/10/02 07:22:51;;;;;;;4.43;2.10;;;12.40;99.90;;;;;;5074960;28;20090;-63
2022/10/02 07:25:46;;;;;;;5.13;1.95;;;12.50;99.90;;;;;;5075338;28;20044;-62
2022/10/02 07:28:19;;;;;;;6.65;2.13;;;12.60;99.90;;;;;;5075228;28;20082;-63
2022/10/02 07:30:57;;;;;;;5.05;1.70;;;12.70;99.90;;;;;;5075117;28;20048;-62
2022/10/02 07:33:57;;;;;;;6.00;1.92;;;12.80;99.90;;;;;;5075152;28;20041;-63
2022/10/02 07:36:40;;;;;;;8.18;1.88;;;13.00;99.90;;;;;;5074710;28;20565;-62
2022/10/02 07:39:44;;;;;;;7.65;2.00;;;13.10;99.90;;;;;;5075529;28;20048;-62
2022/10/02 07:42:13;;;;;;;5.70;1.80;;;13.20;99.90;;;;;;5074621;28;20060;-63
2022/10/02 07:45:13;;;;;;;4.75;1.63;;;13.40;99.90;;;;;;5074219;28;20501;-63
2022/10/02 07:48:05;;;;;;;8.43;1.92;;;13.40;99.90;;;;;;5074581;28;20511;-62
2022/10/02 07:50:50;;;;;;;6.45;2.13;;;13.50;99.90;;;;;;5074322;28;20162;-62
2022/10/02 07:53:23;;;;;;;7.80;1.95;;;13.60;99.90;;;;;;5074007;28;20049;-63
2022/10/02 07:55:52;;;;;;;7.53;2.40;;;13.80;99.90;;;;;;5074219;28;20182;-65
2022/10/02 07:58:26;;;;;;;5.65;1.42;;;14.00;99.90;;;;;;5074535;28;20481;-64
2022/10/02 08:01:00;;;;;;;5.78;1.55;;;14.20;99.90;;;;;;5075143;28;20501;-64
2022/10/02 08:03:42;;;;;;;6.78;1.67;;;14.20;99.90;;;;;;5073441;28;20049;-63
2022/10/02 08:06:07;;;;;;;4.00;1.60;;;14.20;99.90;;;;;;5074420;28;20044;-63
2022/10/02 08:08:46;;;;;;;7.68;1.85;;;14.20;99.90;;;;;;5073336;28;20047;-63
2022/10/02 08:11:42;;;;;;;4.55;1.50;;;14.30;99.90;;;;;;5074344;28;20481;-63
2022/10/02 08:14:41;;;;;;;5.85;1.50;;;14.20;99.90;;;;;;5073186;28;20059;-63
2022/10/02 08:17:33;;;;;;;7.68;1.80;;;14.10;99.90;;;;;;5074189;28;20063;-62
2022/10/02 08:20:28;;;;;;;6.55;1.60;;;13.90;99.90;;;;;;5074122;28;20055;-63
2022/10/02 08:22:58;;;;;;;4.40;1.52;;;13.90;99.90;;;;;;5074460;28;20047;-64
2022/10/02 08:25:42;;;;;;;4.88;1.60;;;14.00;99.90;;;;;;5074400;28;20485;-62
2022/10/02 08:28:22;;;;;;;7.18;1.75;;;14.00;99.90;;;;;;5074485;28;20052;-62
2022/10/02 08:30:48;;;;;;;5.32;1.50;;;14.10;99.90;;;;;;5074458;28;20051;-65
2022/10/02 08:33:18;;;;;;;5.63;1.42;;;14.30;99.90;;;;;;5073811;28;20037;-64
2022/10/02 08:35:58;;;;;;;9.70;1.88;;;14.40;99.90;;;;;;5072736;28;20113;-64
2022/10/02 08:38:48;;;;;;;6.90;1.45;;;14.50;99.90;;;;;;5073804;28;20131;-64
2022/10/02 08:41:26;;;;;;;4.80;1.40;;;14.50;99.90;;;;;;5049144;28;20056;-65
2022/10/02 08:44:30;;;;;;;8.95;1.65;;;14.40;99.90;;;;;;5073081;28;20072;-64
2022/10/02 08:47:20;;;;;;;6.03;1.98;;;14.50;99.90;;;;;;5074252;28;20084;-63
2022/10/02 08:50:18;;;;;;;4.97;1.25;;;14.60;99.90;;;;;;5072608;28;20153;-64
2022/10/02 08:53:21;;;;;;;5.20;1.42;;;14.80;99.90;;;;;;5036145;28;20054;-63
2022/10/02 08:56:26;;;;;;;6.03;1.25;;;14.80;99.90;;;;;;5073371;28;20053;-63
2022/10/02 08:58:58;;;;;;;11.25;1.80;;;14.90;99.90;;;;;;5073852;28;20102;-63
2022/10/02 09:01:42;;;;;;;5.38;1.42;;;15.10;99.90;;;;;;5073459;28;20136;-64
2022/10/02 09:04:45;;;;;;;3.42;1.40;;;15.00;99.90;;;;;;5073581;28;20045;-64
2022/10/02 09:07:29;;;;;;;6.20;1.70;;;15.00;99.90;;;;;;5073018;28;20052;-64
2022/10/02 09:10:11;;;;;;;5.50;1.50;;;15.00;99.90;;;;;;5073948;28;20045;-64
2022/10/02 09:12:39;;;;;;;5.72;1.70;;;15.10;99.90;;;;;;5073826;28;20044;-63
2022/10/02 09:15:49;;;;;;;6.10;1.40;;;15.20;99.90;;;;;;5073824;28;20477;-63
2022/10/02 09:18:32;;;;;;;5.75;1.83;;;15.30;99.90;;;;;;5062653;28;20092;-63
2022/10/02 09:21:19;;;;;;;4.65;1.45;;;15.20;99.90;;;;;;5073368;28;20130;-63
2022/10/02 09:24:06;;;;;;;6.63;1.30;;;15.20;99.90;;;;;;5073694;28;20127;-64
2022/10/02 09:26:44;;;;;;;5.95;1.65;;;15.30;99.90;;;;;;5072902;28;20071;-64
2022/10/02 09:29:22;;;;;;;5.43;1.65;;;15.40;99.90;;;;;;5073904;28;20417;-64
2022/10/02 09:32:18;;;;;;;8.10;1.70;;;15.50;99.90;;;;;;5073324;28;20044;-64
2022/10/02 09:35:15;;;;;;;5.07;1.23;;;15.50;99.90;;;;;;5072992;28;20044;-64
2022/10/02 09:37:50;;;;;;;6.35;1.30;;;15.40;99.90;;;;;;5073019;28;20048;-64
2022/10/02 09:41:01;;;;;;;5.38;1.50;;;15.50;99.90;;;;;;5073596;28;20141;-64
2022/10/02 09:43:50;;;;;;;7.95;1.63;;;15.60;99.90;;;;;;5070793;28;20489;-64
2022/10/02 09:46:51;;;;;;;10.15;1.90;;;15.60;99.90;;;;;;5073417;28;20419;-64
2022/10/02 09:49:41;;;;;;;6.20;1.50;;;15.60;99.90;;;;;;5073545;28;20049;-64
2022/10/02 09:52:54;;;;;;;4.53;1.60;;;15.50;99.90;;;;;;5072294;28;20099;-64
2022/10/02 09:55:35;;;;;;;4.65;1.95;;;15.20;99.90;;;;;;5041142;28;20057;-64
2022/10/02 09:58:13;;;;;;;4.85;1.95;;;15.20;99.90;;;;;;5072880;28;20134;-63
2022/10/02 10:00:48;;;;;;;4.35;1.60;;;15.20;99.90;;;;;;5072867;28;20045;-62
2022/10/02 10:03:25;;;;;;;4.30;1.30;;;15.20;99.90;;;;;;5072739;28;20051;-62
2022/10/02 10:06:14;;;;;;;5.18;1.75;;;15.40;99.90;;;;;;5073100;28;20066;-63
2022/10/02 10:09:18;;;;;;;5.95;2.25;;;15.70;99.90;;;;;;5072828;28;20139;-64
2022/10/02 10:11:46;;;;;;;4.88;1.90;;;15.80;99.90;;;;;;5060209;28;20086;-64
2022/10/02 10:14:30;;;;;;;6.20;1.70;;;15.80;99.90;;;;;;5072614;28;20053;-64
2022/10/02 10:17:04;;;;;;;3.47;1.40;;;15.70;99.90;;;;;;5073781;28;20485;-64
2022/10/02 10:19:58;;;;;;;5.40;1.23;;;15.30;99.90;;;;;;5075171;28;20055;-63
2022/10/02 10:22:37;;;;;;;6.05;1.13;;;14.80;99.90;;;;;;5075537;28;20040;-63
2022/10/02 10:25:27;;;;;;;5.85;1.20;;;14.40;99.90;;;;;;5076337;28;20084;-64
2022/10/02 10:27:58;;;;;;;4.85;1.38;;;14.00;99.90;;;;;;5076806;28;20449;-63
2022/10/02 10:30:39;;;;;;;4.25;1.50;;;13.80;99.90;;;;;;5075937;28;20489;-61
2022/10/02 10:33:33;;;;;;;7.03;1.92;;;13.60;99.90;;;;;;5076952;28;20479;-63
2022/10/02 10:39:20;;;;;;;6.85;1.70;;;13.40;99.90;;;;;;5076097;28;20102;-63
2022/10/02 10:42:24;;;;;;;5.68;1.88;;;13.40;99.90;;;;;;5075567;28;20493;-62
2022/10/02 10:45:17;;;;;;;3.80;1.20;;;13.40;99.90;;;;;;5060835;28;20063;-63
2022/10/02 10:47:42;;;;;;;5.93;1.73;;;13.40;99.90;;;;;;5076391;28;20063;-62
2022/10/02 10:50:41;;;;;;;5.28;1.55;;;13.40;99.90;;;;;;5075912;28;20044;-62
2022/10/02 10:53:21;;;;;;;6.00;1.58;;;13.40;99.90;;;;;;5075113;28;20166;-62
2022/10/02 10:56:18;;;;;;;8.48;1.70;;;13.40;99.90;;;;;;5076437;28;20381;-62
2022/10/02 10:58:45;;;;;;;5.88;1.52;;;13.50;99.90;;;;;;5076637;28;20053;-65
2022/10/02 11:01:22;;;;;;;5.75;1.60;;;13.50;99.90;;;;;;5075747;28;20060;-65
2022/10/02 11:04:16;;;;;;;5.53;1.60;;;13.50;99.90;;;;;;5075682;28;20094;-66
2022/10/02 11:06:51;;;;;;;6.78;1.67;;;13.60;99.90;;;;;;5075646;28;20049;-65
2022/10/02 11:09:39;;;;;;;6.00;1.67;;;13.80;99.90;;;;;;5075597;28;20049;-66
2022/10/02 11:12:18;;;;;;;8.23;2.20;;;14.00;99.90;;;;;;5074508;28;20541;-65
2022/10/02 11:14:56;;;;;;;5.93;1.65;;;14.30;99.90;;;;;;5075528;28;20057;-66
2022/10/02 11:17:30;;;;;;;5.00;1.42;;;14.50;99.90;;;;;;5075930;28;20366;-66
2022/10/02 11:20:33;;;;;;;6.20;1.35;;;14.60;99.90;;;;;;5075222;28;20059;-66
2022/10/02 11:23:30;;;;;;;4.50;1.20;;;14.80;99.90;;;;;;5075841;28;20458;-66
2022/10/02 11:26:28;;;;;;;4.68;1.13;;;15.00;99.90;;;;;;5075817;28;20045;-66
2022/10/02 11:29:18;;;;;;;5.28;1.77;;;15.10;99.90;;;;;;5074870;28;20044;-67
2022/10/02 11:32:04;;;;;;;5.50;1.20;;;15.20;99.90;;;;;;5075692;28;20083;-66
2022/10/02 11:35:00;;;;;;;4.60;1.52;;;15.50;99.90;;;;;;5075176;28;20091;-68
2022/10/02 11:37:26;;;;;;;5.53;1.75;;;15.60;99.90;;;;;;5071635;28;20068;-67
2022/10/02 11:40:01;;;;;;;3.90;1.08;;;15.60;99.90;;;;;;5075014;28;20045;-67
2022/10/02 11:42:56;;;;;;;4.35;1.33;;;15.50;99.90;;;;;;5074883;28;20084;-67
2022/10/02 11:45:54;;;;;;;5.25;1.20;;;15.30;99.90;;;;;;5074860;28;20048;-67
2022/10/02 11:48:37;;;;;;;4.63;1.35;;;15.10;99.90;;;;;;5075104;28;20477;-67
2022/10/02 11:51:21;;;;;;;4.32;1.23;;;14.90;99.90;;;;;;5075130;28;20049;-67
2022/10/02 11:54:14;;;;;;;4.32;1.27;;;14.80;99.90;;;;;;5074124;28;20048;-67
2022/10/02 11:57:00;;;;;;;5.40;1.10;;;14.70;99.90;;;;;;5075237;28;20052;-67
2022/10/02 11:59:35;;;;;;;4.68;1.33;;;14.70;99.90;;;;;;5074435;28;20044;-67
2022/10/02 12:02:34;;;;;;;3.80;1.20;;;14.60;99.90;;;;;;5074306;28;20060;-67
2022/10/02 12:05:30;;;;;;;5.47;1.80;;;14.60;99.90;;;;;;5075357;28;20044;-68
2022/10/02 12:08:30;;;;;;;4.05;1.15;;;14.60;99.90;;;;;;5073301;28;20422;-67
2022/10/02 12:11:14;;;;;;;5.45;1.60;;;14.60;99.90;;;;;;5073789;28;20049;-70
2022/10/02 12:14:01;;;;;;;5.20;1.30;;;14.70;99.90;;;;;;5073341;28;20079;-70
2022/10/02 12:16:47;;;;;;;7.90;1.70;;;14.70;99.90;;;;;;5074659;28;20056;-70
2022/10/02 12:19:32;;;;;;;7.10;2.05;;;14.70;99.90;;;;;;5074141;28;20500;-69
2022/10/02 12:28:35;;;;;;;3.67;1.35;;;14.70;99.90;;;;;;5074411;28;20048;-68
2022/10/02 12:31:32;;;;;;;4.80;1.33;;;14.80;99.90;;;;;;5073607;28;20052;-68
2022/10/02 12:34:26;;;;;;;5.47;1.30;;;15.10;99.90;;;;;;5073847;28;20082;-68
2022/10/02 12:37:08;;;;;;;6.50;1.60;;;15.20;99.90;;;;;;5074281;28;20044;-68
2022/10/02 12:40:11;;;;;;;6.90;1.35;;;15.40;99.90;;;;;;5074015;28;20036;-69
2022/10/02 12:43:09;;;;;;;4.05;0.98;;;15.50;99.90;;;;;;5073451;28;20055;-68
2022/10/02 12:45:57;;;;;;;3.88;1.05;;;15.60;99.90;;;;;;5073753;28;20466;-67
2022/10/02 12:48:44;;;;;;;4.03;1.40;;;15.50;99.90;;;;;;5072748;28;20052;-68
2022/10/02 12:51:36;;;;;;;5.68;1.10;;;15.20;99.90;;;;;;5074180;28;20056;-68
2022/10/02 12:54:06;;;;;;;4.60;1.23;;;15.10;99.90;;;;;;5073578;28;20044;-67
2022/10/02 12:56:56;;;;;;;6.90;1.27;;;15.00;99.90;;;;;;5073873;28;20094;-67
2022/10/02 12:59:49;;;;;;;4.57;1.00;;;14.90;99.90;;;;;;5073528;28;20051;-67
2022/10/02 13:02:55;;;;;;;4.82;1.23;;;14.90;99.90;;;;;;5073188;28;20378;-67
2022/10/02 13:05:21;;;;;;;4.97;1.20;;;14.90;99.90;;;;;;5074041;28;20102;-66
2022/10/02 13:08:12;;;;;;;3.47;1.00;;;14.90;99.90;;;;;;5073395;28;20052;-66
2022/10/02 13:10:48;;;;;;;5.00;1.20;;;15.00;99.90;;;;;;5073201;28;20053;-66
2022/10/02 13:13:47;;;;;;;4.82;1.45;;;15.20;99.90;;;;;;5073093;28;20094;-66
2022/10/02 13:16:35;;;;;;;3.80;1.17;;;15.30;99.90;;;;;;5072310;28;20413;-66
2022/10/02 13:19:42;;;;;;;5.60;1.27;;;15.50;99.90;;;;;;5073330;28;20132;-67
2022/10/02 13:22:34;;;;;;;6.38;1.23;;;15.60;99.90;;;;;;5073343;28;20450;-67
2022/10/02 13:25:47;;;;;;;3.58;1.20;;;15.60;99.90;;;;;;5072441;28;20067;-67
2022/10/02 13:28:31;;;;;;;4.60;1.35;;;15.70;99.90;;;;;;5063843;28;20489;-67
2022/10/02 13:31:10;;;;;;;3.58;0.93;;;15.70;99.90;;;;;;5072558;28;20045;-67
2022/10/02 13:33:56;;;;;;;6.45;1.42;;;15.80;99.90;;;;;;5072300;28;20378;-67
2022/10/02 13:37:01;;;;;;;5.30;1.52;;;15.90;99.90;;;;;;5073008;28;20045;-68
2022/10/02 13:39:45;;;;;;;4.03;1.02;;;15.90;99.90;;;;;;5065703;28;20058;-68
2022/10/02 13:42:22;;;;;;;4.43;1.00;;;15.90;99.90;;;;;;5073576;28;20071;-67
2022/10/02 13:44:48;;;;;;;4.32;1.50;;;15.80;99.90;;;;;;5072931;28;20397;-68
2022/10/02 13:47:37;;;;;;;3.70;1.00;;;15.80;99.90;;;;;;5074310;28;20051;-67
2022/10/02 13:50:05;;;;;;;4.05;1.08;;;15.70;99.90;;;;;;5072656;28;20135;-67
2022/10/02 13:53:23;;;;;;;2.60;0.80;;;15.70;99.90;;;;;;5075846;28;20064;-67
2022/10/02 13:56:18;;;;;;;5.68;1.50;;;15.70;99.90;;;;;;5060518;28;20509;-67
2022/10/02 13:59:05;;;;;;;4.50;0.98;;;15.70;99.90;;;;;;5067789;28;20478;-67
2022/10/02 14:01:39;;;;;;;;;;;15.80;99.90;;;;;;5077903;28;20052;-67
2022/10/02 14:04:40;;;;;;;3.25;0.85;;;15.80;99.90;;;;;;5077104;28;19942;-67
2022/10/02 14:07:26;;;;;;;5.35;1.10;;;15.80;99.90;;;;;;5069176;28;20053;-67
2022/10/02 14:10:06;;;;;;;5.13;1.00;;;15.80;99.90;;;;;;5077343;28;20044;-67
2022/10/02 14:12:44;;;;;;;4.25;0.80;;;15.90;99.90;;;;;;5076605;28;20041;-67
2022/10/02 14:15:39;;;;;;;4.75;0.80;;;15.90;99.90;;;;;;5076805;28;20468;-67
2022/10/02 14:18:48;;;;;;;3.80;1.10;;;15.90;99.90;;;;;;5076458;28;20053;-67
2022/10/02 14:21:35;;;;;;;4.40;0.90;;;15.90;99.90;;;;;;5074507;28;20048;-67